sensor_id;sensor_type;location;lat;lon;timestamp;pressure;altitude;pressure_sealevel;temperature;humidity
47530;BME280;33272;51.922;7.730;2023-02-22T00:01:33;144803.81;;;9.29;100.00
47530;BME280;33272;51.922;7.730;2023-02-22T00:04:15;144805.06;;;9.29;100.00
47530;BME280;33272;51.922;7.730;2023-02-22T00:06:46;144802.53;;;9.28;100.00
47530;BME280;33272;51.922;7.730;2023-02-22T00:09:14;144801.28;;;9.28;100.00
47530;BME280;33272;51.922;7.730;2023-02-22T00:11:46;144797.47;;;9.26;100.00
47530;BME280;33272;51.922;7.730;2023-02-22T00:14:13;144798.78;;;9.27;100.00
47530;BME280;33272;51.922;7.730;2023-02-22T00:16:41;144794.94;;;9.25;100.00
47530;BME280;33272;51.922;7.730;2023-02-22T00:19:08;144786.09;;;9.22;100.00
47530;BME280;33272;51.922;7.730;2023-02-22T00:21:35;144781.00;;;9.20;100.00
47530;BME280;33272;51.922;7.730;2023-02-22T00:24:03;144772.16;;;9.16;100.00
47530;BME280;33272;51.922;7.730;2023-02-22T00:26:48;144755.72;;;9.10;100.00
47530;BME280;33272;51.922;7.730;2023-02-22T00:29:15;144745.59;;;9.05;100.00
47530;BME280;33272;51.922;7.730;2023-02-22T00:31:44;144740.50;;;9.03;100.00
47530;BME280;33272;51.922;7.730;2023-02-22T00:34:12;144738.00;;;9.02;100.00
47530;BME280;33272;51.922;7.730;2023-02-22T00:36:45;144730.41;;;8.99;100.00
47530;BME280;33272;51.922;7.730;2023-02-22T00:39:12;144729.16;;;8.99;100.00
47530;BME280;33272;51.922;7.730;2023-02-22T00:41:39;144731.66;;;9.00;100.00
47530;BME280;33272;51.922;7.730;2023-02-22T00:44:06;144736.75;;;9.02;100.00
47530;BME280;33272;51.922;7.730;2023-02-22T00:46:33;144738.00;;;9.02;100.00
47530;BME280;33272;51.922;7.730;2023-02-22T00:49:01;144743.03;;;9.04;100.00
47530;BME280;33272;51.922;7.730;2023-02-22T00:51:29;144739.25;;;9.03;100.00
47530;BME280;33272;51.922;7.730;2023-02-22T00:53:58;144735.44;;;9.01;100.00
47530;BME280;33272;51.922;7.730;2023-02-22T00:56:25;144726.59;;;8.98;100.00
47530;BME280;33272;51.922;7.730;2023-02-22T00:58:52;144715.22;;;8.93;100.00
47530;BME280;33272;51.922;7.730;2023-02-22T01:01:19;144705.09;;;8.89;100.00
47530;BME280;33272;51.922;7.730;2023-02-22T01:03:46;144689.91;;;8.83;100.00
47530;BME280;33272;51.922;7.730;2023-02-22T01:06:15;144677.25;;;8.78;100.00
47530;BME280;33272;51.922;7.730;2023-02-22T01:08:43;144667.13;;;8.74;100.00
47530;BME280;33272;51.922;7.730;2023-02-22T01:11:11;144658.28;;;8.70;100.00
47530;BME280;33272;51.922;7.730;2023-02-22T01:13:38;144641.78;;;8.64;100.00
47530;BME280;33272;51.922;7.730;2023-02-22T01:16:05;144624.09;;;8.56;100.00
47530;BME280;33272;51.922;7.730;2023-02-22T01:18:33;144598.78;;;8.46;100.00
47530;BME280;33272;51.922;7.730;2023-02-22T01:21:01;144572.19;;;8.35;100.00
47530;BME280;33272;51.922;7.730;2023-02-22T01:23:30;144551.94;;;8.27;100.00
47530;BME280;33272;51.922;7.730;2023-02-22T01:25:57;144535.50;;;8.21;100.00
47530;BME280;33272;51.922;7.730;2023-02-22T01:28:24;144516.50;;;8.13;100.00
47530;BME280;33272;51.922;7.730;2023-02-22T01:30:51;144500.06;;;8.06;100.00
47530;BME280;33272;51.922;7.730;2023-02-22T01:33:20;144486.19;;;8.01;100.00
47530;BME280;33272;51.922;7.730;2023-02-22T01:35:47;144471.00;;;7.95;100.00
47530;BME280;33272;51.922;7.730;2023-02-22T01:38:16;144463.41;;;7.92;100.00
47530;BME280;33272;51.922;7.730;2023-02-22T01:40:49;144457.09;;;7.89;100.00
47530;BME280;33272;51.922;7.730;2023-02-22T01:43:21;144464.69;;;7.92;100.00
47530;BME280;33272;51.922;7.730;2023-02-22T01:45:54;144477.28;;;7.97;100.00
47530;BME280;33272;51.922;7.730;2023-02-22T01:48:38;144488.69;;;8.02;100.00
47530;BME280;33272;51.922;7.730;2023-02-22T01:51:11;144502.63;;;8.07;100.00
47530;BME280;33272;51.922;7.730;2023-02-22T01:53:45;144511.47;;;8.11;100.00
47530;BME280;33272;51.922;7.730;2023-02-22T01:56:15;144525.41;;;8.17;100.00
47530;BME280;33272;51.922;7.730;2023-02-22T01:58:47;144536.75;;;8.21;100.00
47530;BME280;33272;51.922;7.730;2023-02-22T02:01:18;144554.44;;;8.28;100.00
47530;BME280;33272;51.922;7.730;2023-02-22T02:03:48;144570.88;;;8.35;100.00
47530;BME280;33272;51.922;7.730;2023-02-22T02:06:18;144586.13;;;8.41;100.00
47530;BME280;33272;51.922;7.730;2023-02-22T02:08:53;144593.72;;;8.44;100.00
47530;BME280;33272;51.922;7.730;2023-02-22T02:11:26;144601.31;;;8.47;100.00
47530;BME280;33272;51.922;7.730;2023-02-22T02:13:56;144608.91;;;8.50;100.00
47530;BME280;33272;51.922;7.730;2023-02-22T02:16:25;144617.75;;;8.54;100.00
47530;BME280;33272;51.922;7.730;2023-02-22T02:18:56;144617.75;;;8.54;100.00
47530;BME280;33272;51.922;7.730;2023-02-22T02:21:49;144613.97;;;8.52;100.00
47530;BME280;33272;51.922;7.730;2023-02-22T02:25:15;144615.22;;;8.53;100.00
47530;BME280;33272;51.922;7.730;2023-02-22T02:31:53;144625.34;;;8.57;100.00
47530;BME280;33272;51.922;7.730;2023-02-22T02:34:29;144639.28;;;8.63;100.00
47530;BME280;33272;51.922;7.730;2023-02-22T02:37:08;144653.19;;;8.68;100.00
47530;BME280;33272;51.922;7.730;2023-02-22T02:39:42;144659.53;;;8.71;100.00
47530;BME280;33272;51.922;7.730;2023-02-22T02:42:19;144658.28;;;8.70;100.00
47530;BME280;33272;51.922;7.730;2023-02-22T02:44:52;144655.72;;;8.69;100.00
47530;BME280;33272;51.922;7.730;2023-02-22T02:47:23;144653.19;;;8.68;100.00
47530;BME280;33272;51.922;7.730;2023-02-22T02:49:57;144648.13;;;8.66;100.00
47530;BME280;33272;51.922;7.730;2023-02-22T02:52:29;144645.59;;;8.65;100.00
47530;BME280;33272;51.922;7.730;2023-02-22T02:54:58;144649.38;;;8.67;100.00
47530;BME280;33272;51.922;7.730;2023-02-22T02:57:25;144644.34;;;8.65;100.00
47530;BME280;33272;51.922;7.730;2023-02-22T02:59:52;144648.13;;;8.66;100.00
47530;BME280;33272;51.922;7.730;2023-02-22T03:02:35;144640.53;;;8.63;100.00
47530;BME280;33272;51.922;7.730;2023-02-22T03:05:33;144632.94;;;8.60;100.00
47530;BME280;33272;51.922;7.730;2023-02-22T03:08:11;144638.00;;;8.62;100.00
47530;BME280;33272;51.922;7.730;2023-02-22T03:10:50;144638.00;;;8.62;100.00
47530;BME280;33272;51.922;7.730;2023-02-22T03:13:32;144634.19;;;8.61;100.00
47530;BME280;33272;51.922;7.730;2023-02-22T03:16:07;144636.75;;;8.62;100.00
47530;BME280;33272;51.922;7.730;2023-02-22T03:18:47;144634.19;;;8.61;100.00
47530;BME280;33272;51.922;7.730;2023-02-22T03:21:23;144635.50;;;8.61;100.00
47530;BME280;33272;51.922;7.730;2023-02-22T03:24:02;144635.50;;;8.61;100.00
47530;BME280;33272;51.922;7.730;2023-02-22T03:26:35;144634.19;;;8.61;100.00
47530;BME280;33272;51.922;7.730;2023-02-22T03:29:07;144630.41;;;8.59;100.00
47530;BME280;33272;51.922;7.730;2023-02-22T03:31:40;144622.81;;;8.56;100.00
47530;BME280;33272;51.922;7.730;2023-02-22T03:34:14;144621.56;;;8.55;100.00
47530;BME280;33272;51.922;7.730;2023-02-22T03:36:46;144615.22;;;8.53;100.00
47530;BME280;33272;51.922;7.730;2023-02-22T03:39:17;144606.38;;;8.49;100.00
47530;BME280;33272;51.922;7.730;2023-02-22T03:41:48;144610.16;;;8.51;100.00
47530;BME280;33272;51.922;7.730;2023-02-22T03:44:21;144606.38;;;8.49;100.00
47530;BME280;33272;51.922;7.730;2023-02-22T03:46:53;144610.16;;;8.51;100.00
47530;BME280;33272;51.922;7.730;2023-02-22T03:49:32;144603.88;;;8.48;100.00
47530;BME280;33272;51.922;7.730;2023-02-22T03:52:01;144596.28;;;8.45;100.00
47530;BME280;33272;51.922;7.730;2023-02-22T03:54:29;144592.47;;;8.44;100.00
47530;BME280;33272;51.922;7.730;2023-02-22T03:56:59;144586.13;;;8.41;100.00
47530;BME280;33272;51.922;7.730;2023-02-22T03:59:30;144583.59;;;8.40;100.00
47530;BME280;33272;51.922;7.730;2023-02-22T04:01:57;144581.09;;;8.39;100.00
47530;BME280;33272;51.922;7.730;2023-02-22T04:04:25;144577.22;;;8.38;100.00
47530;BME280;33272;51.922;7.730;2023-02-22T04:06:53;144581.09;;;8.39;100.00
47530;BME280;33272;51.922;7.730;2023-02-22T04:09:20;144577.22;;;8.38;100.00
47530;BME280;33272;51.922;7.730;2023-02-22T04:11:47;144574.72;;;8.36;100.00
47530;BME280;33272;51.922;7.730;2023-02-22T04:14:14;144577.22;;;8.38;100.00
47530;BME280;33272;51.922;7.730;2023-02-22T04:16:41;144574.72;;;8.36;100.00
47530;BME280;33272;51.922;7.730;2023-02-22T04:19:08;144570.88;;;8.35;100.00
47530;BME280;33272;51.922;7.730;2023-02-22T04:21:37;144573.44;;;8.36;100.00
47530;BME280;33272;51.922;7.730;2023-02-22T04:24:05;144569.63;;;8.34;100.00
47530;BME280;33272;51.922;7.730;2023-02-22T04:26:32;144568.38;;;8.34;100.00
47530;BME280;33272;51.922;7.730;2023-02-22T04:28:59;144568.38;;;8.34;100.00
47530;BME280;33272;51.922;7.730;2023-02-22T04:31:26;144557.00;;;8.29;100.00
47530;BME280;33272;51.922;7.730;2023-02-22T04:33:53;144549.41;;;8.26;100.00
47530;BME280;33272;51.922;7.730;2023-02-22T04:36:20;144548.13;;;8.26;100.00
47530;BME280;33272;51.922;7.730;2023-02-22T04:38:49;144540.53;;;8.23;100.00
47530;BME280;33272;51.922;7.730;2023-02-22T04:41:16;144538.00;;;8.22;100.00
47530;BME280;33272;51.922;7.730;2023-02-22T04:43:44;144522.84;;;8.16;100.00
47530;BME280;33272;51.922;7.730;2023-02-22T04:46:11;144521.56;;;8.15;100.00
47530;BME280;33272;51.922;7.730;2023-02-22T04:48:38;144519.06;;;8.14;100.00
47530;BME280;33272;51.922;7.730;2023-02-22T04:51:06;144513.97;;;8.12;100.00
47530;BME280;33272;51.922;7.730;2023-02-22T04:53:33;144507.66;;;8.09;100.00
47530;BME280;33272;51.922;7.730;2023-02-22T04:56:01;144502.63;;;8.07;100.00
47530;BME280;33272;51.922;7.730;2023-02-22T04:58:28;144479.84;;;7.98;100.00
47530;BME280;33272;51.922;7.730;2023-02-22T05:00:56;144464.69;;;7.92;100.00
47530;BME280;33272;51.922;7.730;2023-02-22T05:03:23;144455.84;;;7.88;100.00
47530;BME280;33272;51.922;7.730;2023-02-22T05:05:51;144455.84;;;7.88;100.00
47530;BME280;33272;51.922;7.730;2023-02-22T05:08:18;144454.53;;;7.88;100.00
47530;BME280;33272;51.922;7.730;2023-02-22T05:10:46;144452.00;;;7.87;100.00
47530;BME280;33272;51.922;7.730;2023-02-22T05:13:14;144449.50;;;7.86;100.00
47530;BME280;33272;51.922;7.730;2023-02-22T05:15:41;144443.16;;;7.83;100.00
47530;BME280;33272;51.922;7.730;2023-02-22T05:18:08;144439.41;;;7.82;100.00
47530;BME280;33272;51.922;7.730;2023-02-22T05:20:35;144426.75;;;7.77;100.00
47530;BME280;33272;51.922;7.730;2023-02-22T05:23:02;144414.06;;;7.72;100.00
47530;BME280;33272;51.922;7.730;2023-02-22T05:25:31;144410.31;;;7.70;100.00
47530;BME280;33272;51.922;7.730;2023-02-22T05:28:00;144406.50;;;7.69;100.00
47530;BME280;33272;51.922;7.730;2023-02-22T05:30:32;144391.31;;;7.62;100.00
47530;BME280;33272;51.922;7.730;2023-02-22T05:32:59;144386.28;;;7.60;100.00
47530;BME280;33272;51.922;7.730;2023-02-22T05:35:27;144376.13;;;7.56;100.00
47530;BME280;33272;51.922;7.730;2023-02-22T05:37:55;144363.53;;;7.51;100.00
47530;BME280;33272;51.922;7.730;2023-02-22T05:40:25;144362.28;;;7.51;100.00
47530;BME280;33272;51.922;7.730;2023-02-22T05:42:53;144345.84;;;7.44;100.00
47530;BME280;33272;51.922;7.730;2023-02-22T05:45:25;144338.25;;;7.41;100.00
47530;BME280;33272;51.922;7.730;2023-02-22T05:47:54;144328.13;;;7.37;100.00
47530;BME280;33272;51.922;7.730;2023-02-22T05:50:22;144319.28;;;7.33;100.00
47530;BME280;33272;51.922;7.730;2023-02-22T05:52:49;144307.91;;;7.29;100.00
47530;BME280;33272;51.922;7.730;2023-02-22T05:55:21;144295.25;;;7.24;100.00
47530;BME280;33272;51.922;7.730;2023-02-22T05:57:48;144288.94;;;7.21;100.00
47530;BME280;33272;51.922;7.730;2023-02-22T06:00:18;144281.34;;;7.18;100.00
47530;BME280;33272;51.922;7.730;2023-02-22T06:02:55;144273.78;;;7.15;100.00
47530;BME280;33272;51.922;7.730;2023-02-22T06:05:22;144276.34;;;7.16;100.00
47530;BME280;33272;51.922;7.730;2023-02-22T06:07:49;144273.78;;;7.15;100.00
47530;BME280;33272;51.922;7.730;2023-02-22T06:10:17;144273.78;;;7.15;100.00
47530;BME280;33272;51.922;7.730;2023-02-22T06:12:45;144282.59;;;7.18;100.00
47530;BME280;33272;51.922;7.730;2023-02-22T06:15:14;144281.34;;;7.18;100.00
47530;BME280;33272;51.922;7.730;2023-02-22T06:17:41;144282.59;;;7.18;100.00
47530;BME280;33272;51.922;7.730;2023-02-22T06:20:15;144280.09;;;7.17;100.00
47530;BME280;33272;51.922;7.730;2023-02-22T06:22:42;144281.34;;;7.18;100.00
47530;BME280;33272;51.922;7.730;2023-02-22T06:25:13;144294.00;;;7.23;100.00
47530;BME280;33272;51.922;7.730;2023-02-22T06:27:40;144297.78;;;7.25;100.00
47530;BME280;33272;51.922;7.730;2023-02-22T06:30:09;144300.34;;;7.26;100.00
47530;BME280;33272;51.922;7.730;2023-02-22T06:32:36;144301.59;;;7.26;100.00
47530;BME280;33272;51.922;7.730;2023-02-22T06:35:04;144300.34;;;7.26;100.00
47530;BME280;33272;51.922;7.730;2023-02-22T06:37:33;144300.34;;;7.26;100.00
47530;BME280;33272;51.922;7.730;2023-02-22T06:40:00;144294.00;;;7.23;100.00
47530;BME280;33272;51.922;7.730;2023-02-22T06:42:27;144282.59;;;7.18;100.00
47530;BME280;33272;51.922;7.730;2023-02-22T06:44:54;144275.03;;;7.15;100.00
47530;BME280;33272;51.922;7.730;2023-02-22T06:47:21;144273.78;;;7.15;100.00
47530;BME280;33272;51.922;7.730;2023-02-22T06:49:52;144264.94;;;7.11;100.00
47530;BME280;33272;51.922;7.730;2023-02-22T06:52:19;144259.91;;;7.09;100.00
47530;BME280;33272;51.922;7.730;2023-02-22T06:54:48;144258.59;;;7.09;100.00
47530;BME280;33272;51.922;7.730;2023-02-22T06:57:15;144259.91;;;7.09;100.00
47530;BME280;33272;51.922;7.730;2023-02-22T06:59:42;144262.41;;;7.10;100.00
47530;BME280;33272;51.922;7.730;2023-02-22T07:02:10;144259.91;;;7.09;100.00
47530;BME280;33272;51.922;7.730;2023-02-22T07:04:37;144252.31;;;7.06;100.00
47530;BME280;33272;51.922;7.730;2023-02-22T07:07:04;144244.75;;;7.03;100.00
47530;BME280;33272;51.922;7.730;2023-02-22T07:09:31;144243.44;;;7.03;100.00
47530;BME280;33272;51.922;7.730;2023-02-22T07:11:59;144246.00;;;7.04;100.00
47530;BME280;33272;51.922;7.730;2023-02-22T07:14:26;144253.59;;;7.07;100.00
47530;BME280;33272;51.922;7.730;2023-02-22T07:16:54;144252.31;;;7.06;100.00
47530;BME280;33272;51.922;7.730;2023-02-22T07:19:21;144249.75;;;7.05;100.00
47530;BME280;33272;51.922;7.730;2023-02-22T07:21:49;144248.50;;;7.05;100.00
47530;BME280;33272;51.922;7.730;2023-02-22T07:24:22;144249.75;;;7.05;100.00
47530;BME280;33272;51.922;7.730;2023-02-22T07:26:49;144242.19;;;7.02;100.00
47530;BME280;33272;51.922;7.730;2023-02-22T07:29:18;144253.59;;;7.07;100.00
47530;BME280;33272;51.922;7.730;2023-02-22T07:31:48;144263.66;;;7.11;100.00
47530;BME280;33272;51.922;7.730;2023-02-22T07:34:15;144286.44;;;7.20;100.00
47530;BME280;33272;51.922;7.730;2023-02-22T07:36:42;144301.59;;;7.26;100.00
47530;BME280;33272;51.922;7.730;2023-02-22T07:39:09;144296.53;;;7.24;100.00
47530;BME280;33272;51.922;7.730;2023-02-22T07:41:36;144285.16;;;7.19;100.00
47530;BME280;33272;51.922;7.730;2023-02-22T07:44:03;144281.34;;;7.18;100.00
47530;BME280;33272;51.922;7.730;2023-02-22T07:46:32;144271.25;;;7.14;100.00
47530;BME280;33272;51.922;7.730;2023-02-22T07:48:59;144267.44;;;7.12;100.00
47530;BME280;33272;51.922;7.730;2023-02-22T07:51:26;144277.59;;;7.16;100.00
47530;BME280;33272;51.922;7.730;2023-02-22T07:53:53;144287.69;;;7.20;100.00
47530;BME280;33272;51.922;7.730;2023-02-22T07:56:20;144299.09;;;7.25;100.00
47530;BME280;33272;51.922;7.730;2023-02-22T07:58:47;144307.91;;;7.29;100.00
47530;BME280;33272;51.922;7.730;2023-02-22T08:01:14;144319.28;;;7.33;100.00
47530;BME280;33272;51.922;7.730;2023-02-22T08:03:42;144334.44;;;7.39;100.00
47530;BME280;33272;51.922;7.730;2023-02-22T08:06:13;144344.53;;;7.43;100.00
47530;BME280;33272;51.922;7.730;2023-02-22T08:08:40;144363.53;;;7.51;100.00
47530;BME280;33272;51.922;7.730;2023-02-22T08:11:07;144386.28;;;7.60;100.00
47530;BME280;33272;51.922;7.730;2023-02-22T08:13:34;144398.91;;;7.65;100.00
47530;BME280;33272;51.922;7.730;2023-02-22T08:16:02;144420.41;;;7.74;100.00
47530;BME280;33272;51.922;7.730;2023-02-22T08:18:29;144435.59;;;7.80;100.00
47530;BME280;33272;51.922;7.730;2023-02-22T08:20:57;144454.53;;;7.88;100.00
47530;BME280;33272;51.922;7.730;2023-02-22T08:23:25;144473.53;;;7.96;100.00
47530;BME280;33272;51.922;7.730;2023-02-22T08:25:52;144497.56;;;8.05;100.00
47530;BME280;33272;51.922;7.730;2023-02-22T08:28:22;144520.31;;;8.15;100.00
47530;BME280;33272;51.922;7.730;2023-02-22T08:30:51;144529.16;;;8.18;100.00
47530;BME280;33272;51.922;7.730;2023-02-22T08:33:20;144530.44;;;8.19;100.00
47530;BME280;33272;51.922;7.730;2023-02-22T08:35:47;144536.75;;;8.21;100.00
47530;BME280;33272;51.922;7.730;2023-02-22T08:38:19;144535.50;;;8.21;100.00
47530;BME280;33272;51.922;7.730;2023-02-22T08:40:47;144535.50;;;8.21;100.00
47530;BME280;33272;51.922;7.730;2023-02-22T08:43:15;144539.28;;;8.22;100.00
47530;BME280;33272;51.922;7.730;2023-02-22T08:45:43;144564.59;;;8.32;100.00
47530;BME280;33272;51.922;7.730;2023-02-22T08:48:11;144582.34;;;8.40;100.00
47530;BME280;33272;51.922;7.730;2023-02-22T08:50:39;144607.63;;;8.50;100.00
47530;BME280;33272;51.922;7.730;2023-02-22T08:53:09;144625.34;;;8.57;100.00
47530;BME280;33272;51.922;7.730;2023-02-22T08:55:40;144649.38;;;8.67;100.00
47530;BME280;33272;51.922;7.730;2023-02-22T08:58:07;144663.31;;;8.72;100.00
47530;BME280;33272;51.922;7.730;2023-02-22T09:00:36;144684.84;;;8.81;100.00
47530;BME280;33272;51.922;7.730;2023-02-22T09:03:06;144687.34;;;8.82;100.00
47530;BME280;33272;51.922;7.730;2023-02-22T09:05:33;144677.25;;;8.78;100.00
47530;BME280;33272;51.922;7.730;2023-02-22T09:08:00;144672.16;;;8.76;100.00
47530;BME280;33272;51.922;7.730;2023-02-22T09:10:31;144683.56;;;8.80;100.00
47530;BME280;33272;51.922;7.730;2023-02-22T09:13:00;144697.50;;;8.86;100.00
47530;BME280;33272;51.922;7.730;2023-02-22T09:15:29;144719.00;;;8.95;100.00
47530;BME280;33272;51.922;7.730;2023-02-22T09:17:56;144746.84;;;9.06;100.00
47530;BME280;33272;51.922;7.730;2023-02-22T09:20:24;144778.50;;;9.19;100.00
47530;BME280;33272;51.922;7.730;2023-02-22T09:22:52;144801.28;;;9.28;100.00
47530;BME280;33272;51.922;7.730;2023-02-22T09:25:20;144819.00;;;9.35;100.00
47530;BME280;33272;51.922;7.730;2023-02-22T09:27:48;144826.59;;;9.38;100.00
47530;BME280;33272;51.922;7.730;2023-02-22T09:30:22;144815.22;;;9.34;100.00
47530;BME280;33272;51.922;7.730;2023-02-22T09:32:54;144813.97;;;9.33;100.00
47530;BME280;33272;51.922;7.730;2023-02-22T09:35:22;144813.97;;;9.33;100.00
47530;BME280;33272;51.922;7.730;2023-02-22T09:37:53;144824.09;;;9.37;100.00
47530;BME280;33272;51.922;7.730;2023-02-22T09:40:21;144839.28;;;9.43;100.00
47530;BME280;33272;51.922;7.730;2023-02-22T09:43:33;144849.41;;;9.47;100.00
47530;BME280;33272;51.922;7.730;2023-02-22T09:46:21;144869.69;;;9.56;100.00
47530;BME280;33272;51.922;7.730;2023-02-22T09:49:02;144874.72;;;9.58;100.00
47530;BME280;33272;51.922;7.730;2023-02-22T09:51:38;144889.91;;;9.64;100.00
47530;BME280;33272;51.922;7.730;2023-02-22T09:54:17;144905.13;;;9.70;100.00
47530;BME280;33272;51.922;7.730;2023-02-22T09:56:47;144906.38;;;9.70;100.00
47530;BME280;33272;51.922;7.730;2023-02-22T09:59:22;144919.06;;;9.75;100.00
47530;BME280;33272;51.922;7.730;2023-02-22T10:02:01;144946.94;;;9.87;100.00
47530;BME280;33272;51.922;7.730;2023-02-22T10:04:40;144983.63;;;10.02;100.00
47530;BME280;33272;51.922;7.730;2023-02-22T10:07:17;145029.25;;;10.20;100.00
47530;BME280;33272;51.922;7.730;2023-02-22T10:09:47;145064.81;;;10.34;100.00
47530;BME280;33272;51.922;7.730;2023-02-22T10:12:27;145076.19;;;10.39;100.00
47530;BME280;33272;51.922;7.730;2023-02-22T10:18:44;145105.34;;;10.51;100.00
47530;BME280;33272;51.922;7.730;2023-02-22T10:21:34;145145.91;;;10.67;100.00
47530;BME280;33272;51.922;7.730;2023-02-22T10:24:16;145180.09;;;10.81;100.00
47530;BME280;33272;51.922;7.730;2023-02-22T10:26:48;145223.22;;;10.98;100.00
47530;BME280;33272;51.922;7.730;2023-02-22T10:29:21;145271.41;;;11.18;100.00
47530;BME280;33272;51.922;7.730;2023-02-22T10:31:56;145310.72;;;11.33;100.00
47530;BME280;33272;51.922;7.730;2023-02-22T10:34:27;145331.03;;;11.42;100.00
47530;BME280;33272;51.922;7.730;2023-02-22T10:37:02;145343.69;;;11.47;100.00
47530;BME280;33272;51.922;7.730;2023-02-22T10:39:36;145369.09;;;11.57;100.00
47530;BME280;33272;51.922;7.730;2023-02-22T10:42:06;145390.63;;;11.66;100.00
47530;BME280;33272;51.922;7.730;2023-02-22T10:44:35;145413.47;;;11.75;100.00
47530;BME280;33272;51.922;7.730;2023-02-22T10:47:05;145447.78;;;11.89;100.00
47530;BME280;33272;51.922;7.730;2023-02-22T10:49:38;145480.78;;;12.02;100.00
47530;BME280;33272;51.922;7.730;2023-02-22T10:52:14;145498.53;;;12.09;100.00
47530;BME280;33272;51.922;7.730;2023-02-22T10:54:45;145512.50;;;12.15;100.00
47530;BME280;33272;51.922;7.730;2023-02-22T10:57:16;145539.13;;;12.25;100.00
47530;BME280;33272;51.922;7.730;2023-02-22T10:59:45;145556.94;;;12.33;100.00
47530;BME280;33272;51.922;7.730;2023-02-22T11:02:19;145588.66;;;12.45;100.00
47530;BME280;33272;51.922;7.730;2023-02-22T11:04:50;145625.44;;;12.60;100.00
47530;BME280;33272;51.922;7.730;2023-02-22T11:07:22;145669.91;;;12.78;100.00
47530;BME280;33272;51.922;7.730;2023-02-22T11:09:52;145699.13;;;12.90;100.00
47530;BME280;33272;51.922;7.730;2023-02-22T11:12:26;145729.59;;;13.02;100.00
47530;BME280;33272;51.922;7.730;2023-02-22T11:14:54;145761.34;;;13.15;100.00
47530;BME280;33272;51.922;7.730;2023-02-22T11:17:28;145770.22;;;13.18;100.00
47530;BME280;33272;51.922;7.730;2023-02-22T11:19:58;145802.03;;;13.31;100.00
47530;BME280;33272;51.922;7.730;2023-02-22T11:22:28;145828.69;;;13.42;100.00
47530;BME280;33272;51.922;7.730;2023-02-22T11:25:00;145843.94;;;13.48;100.00
47530;BME280;33272;51.922;7.730;2023-02-22T11:27:36;145874.44;;;13.60;100.00
47530;BME280;33272;51.922;7.730;2023-02-22T11:30:21;145890.94;;;13.67;100.00
47530;BME280;33272;51.922;7.730;2023-02-22T11:32:55;145936.72;;;13.85;100.00
47530;BME280;33272;51.922;7.730;2023-02-22T11:35:38;145963.38;;;13.96;100.00
47530;BME280;33272;51.922;7.730;2023-02-22T11:38:20;146001.50;;;14.11;100.00
47530;BME280;33272;51.922;7.730;2023-02-22T11:41:12;146034.56;;;14.25;100.00
47530;BME280;33272;51.922;7.730;2023-02-22T11:43:41;146060.00;;;14.35;100.00
47530;BME280;33272;51.922;7.730;2023-02-22T11:46:12;146076.53;;;14.42;100.00
47530;BME280;33272;51.922;7.730;2023-02-22T11:48:44;146109.63;;;14.55;100.00
47530;BME280;33272;51.922;7.730;2023-02-22T11:51:29;146128.69;;;14.63;100.00
47530;BME280;33272;51.922;7.730;2023-02-22T11:54:22;146117.28;;;14.58;100.00
47530;BME280;33272;51.922;7.730;2023-02-22T11:57:05;146118.53;;;14.58;100.00
47530;BME280;33272;51.922;7.730;2023-02-22T11:59:41;146110.91;;;14.55;100.00
47530;BME280;33272;51.922;7.730;2023-02-22T12:02:31;146121.06;;;14.59;100.00
47530;BME280;33272;51.922;7.730;2023-02-22T12:05:17;146114.75;;;14.57;100.00
47530;BME280;33272;51.922;7.730;2023-02-22T12:08:04;146108.38;;;14.54;100.00
47530;BME280;33272;51.922;7.730;2023-02-22T12:10:47;146116.00;;;14.57;100.00
47530;BME280;33272;51.922;7.730;2023-02-22T12:13:36;146113.47;;;14.56;100.00
47530;BME280;33272;51.922;7.730;2023-02-22T12:16:16;146128.69;;;14.63;100.00
47530;BME280;33272;51.922;7.730;2023-02-22T12:19:04;146135.06;;;14.65;100.00
47530;BME280;33272;51.922;7.730;2023-02-22T12:21:35;146161.78;;;14.76;100.00
47530;BME280;33272;51.922;7.730;2023-02-22T12:24:10;146170.69;;;14.79;100.00
47530;BME280;33272;51.922;7.730;2023-02-22T12:26:41;146177.06;;;14.82;100.00
47530;BME280;33272;51.922;7.730;2023-02-22T12:29:14;146197.38;;;14.90;100.00
47530;BME280;33272;51.922;7.730;2023-02-22T12:31:46;146208.84;;;14.95;100.00
47530;BME280;33272;51.922;7.730;2023-02-22T12:34:24;146221.53;;;15.00;100.00
47530;BME280;33272;51.922;7.730;2023-02-22T12:36:57;146244.44;;;15.09;100.00
47530;BME280;33272;51.922;7.730;2023-02-22T12:39:39;146254.66;;;15.13;100.00
47530;BME280;33272;51.922;7.730;2023-02-22T12:42:14;146262.25;;;15.16;100.00
47530;BME280;33272;51.922;7.730;2023-02-22T12:44:46;146272.44;;;15.20;100.00
47530;BME280;33272;51.922;7.730;2023-02-22T12:47:25;146283.88;;;15.25;100.00
47530;BME280;33272;51.922;7.730;2023-02-22T12:50:11;146299.16;;;15.31;100.00
47530;BME280;33272;51.922;7.730;2023-02-22T12:52:45;146315.69;;;15.38;100.00
47530;BME280;33272;51.922;7.730;2023-02-22T12:55:20;146330.97;;;15.44;100.00
47530;BME280;33272;51.922;7.730;2023-02-22T12:57:57;146330.97;;;15.44;100.00
47530;BME280;33272;51.922;7.730;2023-02-22T13:00:33;146332.22;;;15.44;100.00
47530;BME280;33272;51.922;7.730;2023-02-22T13:03:05;146341.16;;;15.48;100.00
47530;BME280;33272;51.922;7.730;2023-02-22T13:05:44;146347.50;;;15.50;100.00
47530;BME280;33272;51.922;7.730;2023-02-22T13:08:25;146344.97;;;15.49;100.00
47530;BME280;33272;51.922;7.730;2023-02-22T13:11:07;146344.97;;;15.49;100.00
47530;BME280;33272;51.922;7.730;2023-02-22T13:13:43;146350.06;;;15.51;100.00
47530;BME280;33272;51.922;7.730;2023-02-22T13:16:29;146352.59;;;15.52;100.00
47530;BME280;33272;51.922;7.730;2023-02-22T13:19:06;146360.22;;;15.56;100.00